Time;durP1;ratioP1;P1;durP2;ratioP2;P2;SDS_P1;SDS_P2;PMS_P1;PMS_P2;Temp;Humidity;BMP_temperature;BMP_pressure;BME280_temperature;BME280_humidity;BME280_pressure;Samples;Min_cycle;Max_cycle;Signal;HPM_P1;HPM_P2
2021/10/26 00:00:10;;;;;;;35.92;22.38;;;;;;;9.24;91.70;100822.84;5017320;28;20954;-53
2021/10/26 00:02:37;;;;;;;36.05;23.10;;;;;;;9.27;92.13;100827.16;5018407;28;20056;-52
2021/10/26 00:05:05;;;;;;;39.20;22.85;;;;;;;9.26;91.56;100834.22;5012295;28;20136;-52
2021/10/26 00:07:33;;;;;;;36.63;22.83;;;;;;;9.21;92.13;100830.88;5017765;28;20055;-53
2021/10/26 00:10:00;;;;;;;36.92;22.80;;;;;;;9.18;92.05;100830.97;5018923;28;20048;-53
2021/10/26 00:12:28;;;;;;;37.63;23.08;;;;;;;9.13;92.66;100828.47;5014241;28;21020;-53
2021/10/26 00:14:54;;;;;;;35.80;22.80;;;;;;;9.14;92.82;100830.22;5019037;28;20056;-54
2021/10/26 00:17:21;;;;;;;36.00;22.40;;;;;;;9.11;93.22;100832.97;5017670;28;20507;-54
2021/10/26 00:19:48;;;;;;;36.63;24.25;;;;;;;9.10;93.89;100836.53;5018927;28;20471;-54
2021/10/26 00:22:14;;;;;;;37.63;24.02;;;;;;;9.12;93.76;100824.13;5015352;28;20064;-50
2021/10/26 00:24:41;;;;;;;38.15;23.67;;;;;;;9.16;93.81;100838.09;5019902;28;20060;-52
2021/10/26 00:27:07;;;;;;;37.45;23.33;;;;;;;9.18;93.92;100844.19;5026813;28;20624;-54
2021/10/26 00:29:34;;;;;;;32.42;22.20;;;;;;;9.19;93.91;100837.97;5022027;28;20049;-53
2021/10/26 00:32:01;;;;;;;36.40;22.77;;;;;;;9.20;93.91;100836.22;5020010;28;20052;-53
2021/10/26 00:34:27;;;;;;;35.78;22.95;;;;;;;9.20;94.18;100837.06;5018176;28;20156;-53
2021/10/26 00:36:54;;;;;;;33.15;22.42;;;;;;;9.21;94.21;100836.16;5021191;28;20044;-56
2021/10/26 00:39:21;;;;;;;36.17;23.00;;;;;;;9.24;94.36;100837.84;5021008;28;20506;-53
2021/10/26 00:41:48;;;;;;;31.70;22.13;;;;;;;9.30;94.03;100838.47;5029321;28;20057;-52
2021/10/26 00:44:15;;;;;;;33.72;21.95;;;;;;;9.34;93.64;100840.09;5025033;28;22811;-62
2021/10/26 00:46:41;;;;;;;32.08;22.05;;;;;;;9.21;93.52;100822.94;5030262;28;20050;-57
2021/10/26 00:49:11;;;;;;;33.95;23.27;;;;;;;9.38;93.60;100847.00;5026888;28;20437;-58
2021/10/26 00:51:40;;;;;;;36.00;22.10;;;;;;;9.38;93.29;100848.78;5032055;28;20049;-58
2021/10/26 00:54:07;;;;;;;34.47;21.88;;;;;;;9.36;93.42;100847.97;5032424;28;20131;-53
2021/10/26 00:56:33;;;;;;;31.10;21.63;;;;;;;9.33;93.49;100854.22;5035755;28;20260;-53
2021/10/26 00:59:01;;;;;;;33.92;22.63;;;;;;;9.36;93.13;100851.47;5032893;28;20053;-52
2021/10/26 01:01:28;;;;;;;34.45;21.80;;;;;;;9.34;93.43;100853.31;5028677;28;20045;-54
2021/10/26 01:03:55;;;;;;;33.17;21.58;;;;;;;9.32;93.45;100855.13;5023128;28;20052;-54
2021/10/26 01:06:21;;;;;;;31.35;21.45;;;;;;;9.31;93.65;100844.63;5026276;28;20100;-54
2021/10/26 01:08:48;;;;;;;31.30;21.40;;;;;;;9.32;93.53;100857.78;5035861;28;20782;-57
2021/10/26 01:11:16;;;;;;;29.63;21.45;;;;;;;9.29;93.75;100857.88;5033336;28;20159;-52
2021/10/26 01:13:45;;;;;;;29.95;21.38;;;;;;;9.32;93.88;100855.13;5020543;28;20063;-54
2021/10/26 01:16:11;;;;;;;33.08;22.23;;;;;;;9.36;93.68;100845.34;5025518;28;21054;-52
2021/10/26 01:18:38;;;;;;;34.75;21.85;;;;;;;9.33;93.35;100850.72;5028873;28;20052;-53
2021/10/26 01:21:05;;;;;;;30.73;21.75;;;;;;;9.32;93.60;100852.50;5042558;28;20052;-53
2021/10/26 01:23:32;;;;;;;29.48;20.30;;;;;;;9.31;94.33;100848.13;5024512;28;20033;-53
2021/10/26 01:26:00;;;;;;;31.30;21.20;;;;;;;9.21;94.21;100830.88;5034669;28;20413;-52
2021/10/26 01:28:27;;;;;;;33.40;21.85;;;;;;;9.32;94.67;100846.34;5032346;28;20053;-53
2021/10/26 01:30:54;;;;;;;31.90;21.27;;;;;;;9.32;94.68;100856.91;5028460;28;20217;-54
2021/10/26 01:33:21;;;;;;;33.17;20.77;;;;;;;9.32;94.94;100851.63;5024237;28;20520;-53
2021/10/26 01:35:47;;;;;;;30.83;20.85;;;;;;;9.30;95.14;100846.41;5027373;28;20060;-53
2021/10/26 01:38:14;;;;;;;31.73;20.63;;;;;;;9.34;95.15;100834.81;5037697;28;20044;-52
2021/10/26 01:40:41;;;;;;;29.42;20.98;;;;;;;9.33;95.44;100840.16;5031847;28;20049;-53
2021/10/26 01:43:07;;;;;;;30.90;19.83;;;;;;;9.34;95.58;100842.75;5019125;28;20789;-52
2021/10/26 01:45:34;;;;;;;29.80;20.80;;;;;;;9.38;95.72;100844.38;5032519;28;20045;-52
2021/10/26 01:48:01;;;;;;;29.58;20.75;;;;;;;9.41;95.59;100846.03;5019565;28;20124;-53
2021/10/26 01:50:27;;;;;;;35.17;21.17;;;;;;;9.39;95.73;100822.31;5017678;28;20069;-52
2021/10/26 01:52:54;;;;;;;31.02;20.90;;;;;;;9.40;95.78;100831.97;5026100;28;20041;-54
2021/10/26 01:55:21;;;;;;;33.08;21.17;;;;;;;9.39;95.99;100835.53;5020963;28;20055;-56
2021/10/26 01:57:48;;;;;;;34.45;20.98;;;;;;;9.36;96.44;100825.06;5019986;28;20505;-53
2021/10/26 02:00:18;;;;;;;29.60;19.73;;;;;;;9.38;96.53;100825.00;5023884;28;20045;-51
2021/10/26 02:02:49;;;;;;;29.20;19.25;;;;;;;9.33;95.93;100816.38;5016879;28;20056;-53
2021/10/26 02:05:17;;;;;;;30.40;20.95;;;;;;;9.40;96.09;100828.47;5019993;28;20088;-52
2021/10/26 02:07:45;;;;;;;28.73;18.75;;;;;;;9.37;96.35;100823.28;5019462;28;20052;-52
2021/10/26 02:10:12;;;;;;;27.17;19.42;;;;;;;9.41;96.23;100830.19;5020531;28;20049;-52
2021/10/26 02:12:39;;;;;;;30.13;19.60;;;;;;;9.40;96.13;100829.31;5019150;28;20049;-54
2021/10/26 02:15:06;;;;;;;31.35;20.20;;;;;;;9.41;96.39;100825.75;5024354;28;20312;-53
2021/10/26 02:17:33;;;;;;;29.20;20.58;;;;;;;9.38;96.66;100825.88;5019845;28;20050;-53
2021/10/26 02:20:00;;;;;;;26.20;19.10;;;;;;;9.34;96.92;100837.47;5020201;28;20057;-53
2021/10/26 02:22:26;;;;;;;29.60;19.90;;;;;;;9.31;97.05;100837.56;5018106;28;20061;-53
2021/10/26 02:24:53;;;;;;;31.35;19.83;;;;;;;9.29;97.30;100836.75;5016567;28;21025;-53
2021/10/26 02:27:19;;;;;;;31.17;21.63;;;;;;;9.24;97.98;100849.28;5019455;28;20044;-54
2021/10/26 02:29:46;;;;;;;27.48;19.77;;;;;;;9.22;98.20;100853.75;5022019;28;20042;-52
2021/10/26 02:32:12;;;;;;;30.23;20.48;;;;;;;9.22;98.28;100855.53;5017678;28;20053;-52
2021/10/26 02:34:39;;;;;;;31.77;20.58;;;;;;;9.21;98.22;100864.34;5015782;28;20057;-51
2021/10/26 02:37:06;;;;;;;30.65;20.83;;;;;;;9.18;98.37;100860.03;5018206;28;20057;-52
2021/10/26 02:39:33;;;;;;;32.63;21.27;;;;;;;9.10;98.56;100851.53;5018049;28;20602;-53
2021/10/26 02:41:59;;;;;;;33.05;20.50;;;;;;;9.19;98.54;100859.13;5019102;28;20045;-53
2021/10/26 02:44:26;;;;;;;29.85;20.55;;;;;;;9.15;98.50;100857.50;5015552;28;20056;-53
2021/10/26 02:46:52;;;;;;;28.02;19.63;;;;;;;9.11;98.88;100848.84;5019947;28;20045;-53
2021/10/26 02:49:19;;;;;;;30.58;20.38;;;;;;;9.14;99.24;100859.28;5017602;28;20081;-54
2021/10/26 02:51:45;;;;;;;30.52;19.80;;;;;;;9.13;99.25;100852.25;5018650;28;20045;-54
2021/10/26 02:54:12;;;;;;;30.95;20.48;;;;;;;9.09;99.22;100844.50;5017152;28;20083;-52
2021/10/26 02:56:38;;;;;;;37.30;21.45;;;;;;;9.09;99.72;100847.16;5017652;28;20065;-53
2021/10/26 02:59:05;;;;;;;30.73;20.83;;;;;;;9.07;99.54;100856.91;5019327;28;20139;-53
2021/10/26 03:01:31;;;;;;;30.98;20.80;;;;;;;9.07;99.61;100851.63;5021346;28;20053;-53
2021/10/26 03:03:58;;;;;;;33.67;20.98;;;;;;;9.05;99.58;100856.94;5013447;28;20456;-54
2021/10/26 03:06:25;;;;;;;31.92;21.50;;;;;;;9.01;99.74;100851.81;5017778;28;20049;-54
2021/10/26 03:08:51;;;;;;;31.48;21.25;;;;;;;9.01;99.96;100862.38;5017434;28;20052;-53
2021/10/26 03:11:18;;;;;;;29.63;21.02;;;;;;;8.99;99.90;100858.91;5020958;28;20056;-54
2021/10/26 03:13:44;;;;;;;29.70;20.35;;;;;;;8.95;100.00;100865.25;5012508;28;20060;-53
2021/10/26 03:16:11;;;;;;;29.92;19.88;;;;;;;8.95;100.00;100867.88;5016801;28;20414;-54
2021/10/26 03:18:37;;;;;;;32.35;21.45;;;;;;;8.92;100.00;100867.97;5016618;28;20140;-52
2021/10/26 03:21:04;;;;;;;30.25;20.67;;;;;;;8.78;100.00;100840.25;5017471;28;20052;-57
2021/10/26 03:23:31;;;;;;;33.08;22.10;;;;;;;8.87;100.00;100864.59;5014924;28;20045;-53
2021/10/26 03:25:58;;;;;;;32.00;21.58;;;;;;;8.89;100.00;100870.72;5015667;28;20048;-53
2021/10/26 03:28:25;;;;;;;31.15;21.10;;;;;;;8.87;100.00;100870.75;5016962;28;20053;-52
2021/10/26 03:30:51;;;;;;;32.70;21.27;;;;;;;8.85;100.00;100869.94;5025933;28;20048;-53
2021/10/26 03:33:18;;;;;;;29.63;20.60;;;;;;;8.84;100.00;100877.91;5015629;28;20056;-53
2021/10/26 03:35:44;;;;;;;35.28;22.08;;;;;;;8.80;100.00;100871.88;5026417;28;20057;-53
2021/10/26 03:38:11;;;;;;;28.25;19.92;;;;;;;8.77;100.00;100879.91;5024751;28;20056;-52
2021/10/26 03:40:38;;;;;;;32.22;21.73;;;;;;;8.75;100.00;100876.44;5034097;28;20040;-53
2021/10/26 03:43:06;;;;;;;32.65;21.15;;;;;;;8.74;100.00;100885.28;5023697;28;20059;-54
2021/10/26 03:45:33;;;;;;;29.30;20.58;;;;;;;8.72;100.00;100877.38;5025368;28;20494;-54
2021/10/26 03:47:59;;;;;;;35.63;22.95;;;;;;;8.76;100.00;100888.72;5034741;28;20041;-53
2021/10/26 03:50:26;;;;;;;36.78;22.63;;;;;;;8.72;100.00;100882.66;5030553;28;20077;-51
2021/10/26 03:52:52;;;;;;;32.22;21.48;;;;;;;8.75;100.00;100887.88;5031192;28;20053;-53
2021/10/26 03:55:20;;;;;;;31.27;20.80;;;;;;;8.78;100.00;100886.91;5030595;28;20056;-53
2021/10/26 03:57:47;;;;;;;31.17;21.60;;;;;;;8.73;100.00;100876.47;5038836;28;20049;-54
2021/10/26 04:00:14;;;;;;;32.45;21.35;;;;;;;8.79;100.00;100883.34;5033056;28;20049;-53
2021/10/26 04:02:42;;;;;;;35.75;22.30;;;;;;;8.83;100.00;100884.09;5025632;28;20055;-53
2021/10/26 04:05:36;;;;;;;34.50;21.00;;;;;;;8.86;100.00;100890.16;5030375;28;20044;-53
2021/10/26 04:08:18;;;;;;;30.25;19.90;;;;;;;8.88;100.00;100887.47;5031204;28;20497;-53
2021/10/26 04:10:50;;;;;;;33.15;22.20;;;;;;;8.88;100.00;100887.47;5032073;28;20449;-52
2021/10/26 04:13:18;;;;;;;34.00;21.70;;;;;;;8.89;100.00;100879.50;5029840;28;20041;-54
2021/10/26 04:15:45;;;;;;;31.55;21.83;;;;;;;8.91;100.00;100882.94;5034949;28;20048;-51
2021/10/26 04:18:12;;;;;;;31.67;21.55;;;;;;;8.93;100.00;100888.19;5033835;28;20049;-54
2021/10/26 04:20:38;;;;;;;29.33;20.95;;;;;;;8.95;100.00;100887.22;5031207;28;20041;-53
2021/10/26 04:23:05;;;;;;;30.25;21.25;;;;;;;8.95;100.00;100887.22;5034129;28;20049;-53
2021/10/26 04:25:32;;;;;;;28.95;20.10;;;;;;;8.96;100.00;100893.38;5023719;28;20045;-53
2021/10/26 04:28:00;;;;;;;30.90;20.33;;;;;;;8.93;100.00;100890.84;5031515;28;20043;-52
2021/10/26 04:30:27;;;;;;;32.53;21.80;;;;;;;8.91;100.00;100895.28;5029767;28;20506;-56
2021/10/26 04:32:53;;;;;;;34.20;22.27;;;;;;;8.88;100.00;100898.91;5032733;28;20057;-52
2021/10/26 04:35:20;;;;;;;34.22;21.52;;;;;;;8.87;100.00;100898.94;5027072;28;20041;-54
2021/10/26 04:37:47;;;;;;;35.20;21.65;;;;;;;8.89;100.00;100895.34;5042573;28;20482;-53
2021/10/26 04:40:13;;;;;;;31.63;21.45;;;;;;;8.88;100.00;100893.63;5034229;28;20090;-53
2021/10/26 04:42:40;;;;;;;31.17;20.80;;;;;;;8.90;100.00;100896.22;5026257;28;20049;-55
2021/10/26 04:45:07;;;;;;;29.10;19.75;;;;;;;8.91;100.00;100901.44;5025700;28;20052;-52
2021/10/26 04:47:33;;;;;;;32.25;21.00;;;;;;;8.91;100.00;100900.59;5031396;28;20041;-53
2021/10/26 04:50:00;;;;;;;31.05;20.17;;;;;;;8.94;100.00;100904.00;5026236;28;20049;-52
2021/10/26 04:52:26;;;;;;;28.40;19.95;;;;;;;8.97;100.00;100905.69;5029563;28;20057;-53
2021/10/26 04:54:53;;;;;;;34.50;20.60;;;;;;;9.00;100.00;100903.78;5023572;28;20049;-54
2021/10/26 04:57:19;;;;;;;32.97;20.10;;;;;;;8.99;100.00;100907.31;5022977;28;20041;-52
2021/10/26 04:59:46;;;;;;;31.15;21.13;;;;;;;9.00;100.00;100913.47;5029312;28;20040;-53
2021/10/26 05:02:13;;;;;;;29.52;20.40;;;;;;;9.00;100.00;100911.69;5030588;28;20059;-54
2021/10/26 05:04:39;;;;;;;27.23;19.63;;;;;;;9.03;100.00;100911.59;5020710;28;20122;-51
2021/10/26 05:07:06;;;;;;;28.45;19.35;;;;;;;9.05;100.00;100911.56;5036617;28;20052;-51
2021/10/26 05:09:33;;;;;;;27.98;19.50;;;;;;;9.06;100.00;100910.66;5039089;28;20048;-54
2021/10/26 05:11:59;;;;;;;29.08;18.52;;;;;;;9.05;100.00;100908.91;5032842;28;20041;-53
2021/10/26 05:14:26;;;;;;;26.10;19.08;;;;;;;9.08;100.00;100916.75;5021776;28;20049;-55
2021/10/26 05:16:53;;;;;;;26.85;18.73;;;;;;;9.23;100.00;100921.53;5041426;28;20067;-54
2021/10/26 05:19:21;;;;;;;24.67;18.02;;;;;;;9.20;100.00;100921.63;5026451;28;20052;-52
2021/10/26 05:21:48;;;;;;;26.23;19.27;;;;;;;9.19;100.00;100914.63;5038085;28;20584;-54
2021/10/26 05:24:15;;;;;;;28.30;19.60;;;;;;;9.18;100.00;100923.44;5022436;28;20048;-54
2021/10/26 05:26:42;;;;;;;26.73;18.23;;;;;;;9.19;100.00;100925.19;5034106;28;20045;-52
2021/10/26 05:29:10;;;;;;;27.95;18.88;;;;;;;9.19;100.00;100925.19;5035975;28;20045;-54
2021/10/26 05:31:38;;;;;;;28.30;17.98;;;;;;;9.21;100.00;100928.66;5026574;28;20926;-53
2021/10/26 05:34:09;;;;;;;26.55;19.00;;;;;;;9.22;100.00;100935.66;5019768;28;20045;-53
2021/10/26 05:36:36;;;;;;;25.90;18.15;;;;;;;9.24;100.00;100939.13;5026686;28;20072;-53
2021/10/26 05:39:08;;;;;;;23.95;17.67;;;;;;;9.26;100.00;100942.59;5026927;28;20052;-53
2021/10/26 05:41:40;;;;;;;24.17;17.48;;;;;;;9.29;100.00;100941.59;5039263;28;20056;-52
2021/10/26 05:44:06;;;;;;;23.75;16.55;;;;;;;9.32;100.00;100942.34;5026265;28;20053;-52
2021/10/26 05:46:33;;;;;;;23.73;16.95;;;;;;;9.33;100.00;100944.09;5040824;28;20049;-53
2021/10/26 05:49:00;;;;;;;27.88;18.33;;;;;;;9.34;100.00;100934.38;5044442;28;20056;-52
2021/10/26 05:51:27;;;;;;;28.25;17.70;;;;;;;9.36;100.00;100944.00;5038962;28;20053;-51
2021/10/26 05:53:53;;;;;;;24.77;16.83;;;;;;;9.38;100.00;100941.31;5026508;28;20049;-52
2021/10/26 05:56:20;;;;;;;26.83;18.17;;;;;;;9.39;100.00;100946.53;5036324;28;20045;-53
2021/10/26 05:58:46;;;;;;;27.13;18.25;;;;;;;9.41;100.00;100946.50;5038221;28;20378;-52
2021/10/26 06:01:13;;;;;;;24.55;16.48;;;;;;;9.42;100.00;100949.09;5024916;28;20067;-57
2021/10/26 06:03:39;;;;;;;24.38;18.00;;;;;;;9.41;100.00;100951.78;5025311;28;20064;-53
2021/10/26 06:06:06;;;;;;;25.83;17.85;;;;;;;9.44;100.00;100946.41;5035270;28;20914;-52
2021/10/26 06:08:33;;;;;;;29.63;17.25;;;;;;;9.44;100.00;100957.81;5029085;28;20164;-53
2021/10/26 06:11:04;;;;;;;27.15;17.75;;;;;;;9.48;100.00;100955.94;5029290;28;20672;-52
2021/10/26 06:13:34;;;;;;;25.77;16.70;;;;;;;9.50;100.00;100962.03;5034315;28;20045;-55
2021/10/26 06:16:01;;;;;;;22.65;14.55;;;;;;;9.59;100.00;100968.81;5035121;28;20049;-51
2021/10/26 06:18:28;;;;;;;24.42;15.10;;;;;;;9.65;100.00;100976.50;5039397;28;20052;-54
2021/10/26 06:20:54;;;;;;;24.50;15.98;;;;;;;9.68;100.00;100973.78;5033418;28;20059;-52
2021/10/26 06:23:21;;;;;;;21.10;14.90;;;;;;;9.74;100.00;100976.22;5033237;28;20049;-53
2021/10/26 06:25:47;;;;;;;21.27;15.48;;;;;;;9.75;100.00;100975.31;5028434;28;20045;-55
2021/10/26 06:28:14;;;;;;;19.42;14.65;;;;;;;9.76;100.00;100975.22;5029242;28;20509;-57
2021/10/26 06:30:41;;;;;;;23.42;14.80;;;;;;;9.75;100.00;100981.47;5030332;28;20044;-53
2021/10/26 06:33:08;;;;;;;22.63;15.00;;;;;;;9.76;100.00;100980.50;5026830;28;20048;-53
2021/10/26 06:35:35;;;;;;;20.10;14.52;;;;;;;9.79;100.00;100979.56;5022365;28;20042;-51
2021/10/26 06:38:01;;;;;;;20.52;13.90;;;;;;;9.81;100.00;100978.59;5036354;28;20044;-52
2021/10/26 06:40:28;;;;;;;20.02;14.93;;;;;;;9.84;100.00;100977.63;5031867;28;20045;-55
2021/10/26 06:42:55;;;;;;;20.48;15.23;;;;;;;9.87;100.00;100977.53;5032525;28;20041;-53
2021/10/26 06:45:21;;;;;;;25.80;16.83;;;;;;;9.89;100.00;100980.13;5029811;28;20056;-54
2021/10/26 06:47:48;;;;;;;26.13;16.15;;;;;;;9.95;100.00;100993.09;5024572;28;20049;-54
2021/10/26 06:50:15;;;;;;;23.17;14.70;;;;;;;10.00;100.00;100986.75;5027306;28;20056;-54
2021/10/26 06:52:41;;;;;;;19.15;14.07;;;;;;;10.04;100.00;100995.44;5035788;28;20049;-53
2021/10/26 06:55:08;;;;;;;21.38;14.98;;;;;;;10.10;100.00;101005.81;5021967;28;20457;-52
2021/10/26 06:57:35;;;;;;;18.92;13.68;;;;;;;10.17;100.00;101002.91;5028085;28;20045;-53
2021/10/26 07:00:05;;;;;;;21.30;13.15;;;;;;;10.28;100.00;101004.31;5026743;28;20056;-53
2021/10/26 07:02:31;;;;;;;19.47;13.87;;;;;;;10.34;100.00;101001.47;5029221;28;20051;-53
2021/10/26 07:05:01;;;;;;;18.63;13.55;;;;;;;10.29;100.00;100985.72;5029958;28;20067;-53
2021/10/26 07:07:28;;;;;;;17.73;13.10;;;;;;;10.42;100.00;101008.19;5023141;28;20049;-53
2021/10/26 07:09:55;;;;;;;18.88;13.85;;;;;;;10.44;99.54;101001.06;5022585;28;20045;-52
2021/10/26 07:12:22;;;;;;;20.65;14.13;;;;;;;10.46;99.48;101016.91;5022934;28;20049;-52
2021/10/26 07:14:48;;;;;;;20.00;13.40;;;;;;;10.47;99.43;101019.50;5019637;28;20506;-52
2021/10/26 07:17:15;;;;;;;20.35;13.93;;;;;;;10.51;99.45;101028.19;5016994;28;20045;-53
2021/10/26 07:19:41;;;;;;;21.35;14.60;;;;;;;10.55;99.12;101033.28;5029149;28;20060;-52
2021/10/26 07:22:08;;;;;;;19.50;13.38;;;;;;;10.58;99.04;101029.69;5030761;28;20046;-52
2021/10/26 07:24:34;;;;;;;19.10;13.60;;;;;;;10.55;99.54;101035.06;5033378;28;20494;-52
2021/10/26 07:27:01;;;;;;;20.83;12.95;;;;;;;10.56;99.30;101036.81;5037079;28;20044;-52
2021/10/26 07:29:27;;;;;;;19.35;13.18;;;;;;;10.58;99.79;101045.56;5037180;28;20053;-52
2021/10/26 07:31:55;;;;;;;18.65;13.32;;;;;;;10.61;99.62;101042.81;5041933;28;20045;-52
2021/10/26 07:34:22;;;;;;;19.25;13.07;;;;;;;10.68;99.80;101044.31;5026201;28;20052;-53
2021/10/26 07:36:50;;;;;;;18.67;12.50;;;;;;;10.75;99.40;101048.47;5034881;28;20045;-52
2021/10/26 07:41:59;;;;;;;17.40;12.90;;;;;;;11.08;99.14;101048.09;5036791;28;20033;-51
2021/10/26 07:44:28;;;;;;;15.60;12.07;;;;;;;11.33;97.52;101048.03;5018495;28;20408;-52
2021/10/26 07:47:00;;;;;;;17.77;11.75;;;;;;;11.52;96.09;101049.84;5014554;28;20052;-52
2021/10/26 07:49:28;;;;;;;17.73;11.65;;;;;;;11.66;95.21;101053.72;5007813;28;20053;-53
2021/10/26 07:52:01;;;;;;;19.38;12.00;;;;;;;11.60;93.72;101050.44;5022036;28;20064;-52
2021/10/26 07:54:27;;;;;;;18.98;11.95;;;;;;;11.52;93.92;101054.28;5010987;28;20064;-53
2021/10/26 07:56:58;;;;;;;16.27;11.50;;;;;;;11.44;94.30;101045.81;5006148;28;20135;-52
2021/10/26 07:59:25;;;;;;;20.17;12.52;;;;;;;11.43;95.01;101057.34;5009665;28;20037;-54
2021/10/26 08:01:52;;;;;;;19.98;12.00;;;;;;;11.40;95.15;101055.66;5015615;28;20041;-53
2021/10/26 08:04:19;;;;;;;20.50;12.30;;;;;;;11.43;94.94;101057.34;5014457;28;20053;-53
2021/10/26 08:06:47;;;;;;;21.10;12.05;;;;;;;11.44;95.36;101070.53;5021790;28;20494;-53
2021/10/26 08:09:15;;;;;;;19.30;12.43;;;;;;;11.47;94.71;101077.50;5018610;28;20056;-54
2021/10/26 08:11:42;;;;;;;17.20;12.38;;;;;;;11.45;95.26;101071.41;5007410;28;20061;-53
2021/10/26 08:14:09;;;;;;;17.45;11.57;;;;;;;11.45;95.00;101066.09;4996540;28;20046;-52
2021/10/26 08:16:36;;;;;;;18.00;11.55;;;;;;;11.45;95.45;101066.97;5005229;28;20049;-53
2021/10/26 08:19:03;;;;;;;17.90;12.25;;;;;;;11.46;95.36;101075.78;5004458;28;20049;-52
2021/10/26 08:21:30;;;;;;;19.67;13.00;;;;;;;11.53;95.05;101067.50;5003328;28;20046;-52
2021/10/26 08:23:56;;;;;;;18.35;12.65;;;;;;;11.54;94.72;101069.22;5009964;28;20057;-53
2021/10/26 08:26:35;;;;;;;18.23;11.85;;;;;;;11.59;94.28;101069.91;5006277;28;20498;-52
2021/10/26 08:31:43;;;;;;;21.17;13.88;;;;;;;11.60;94.26;101076.94;5004359;28;20061;-52
2021/10/26 08:34:29;;;;;;;19.38;12.68;;;;;;;11.68;93.72;101073.09;5005531;28;20047;-53
2021/10/26 08:36:56;;;;;;;17.92;12.65;;;;;;;11.71;93.60;101075.63;5004810;28;20048;-54
2021/10/26 08:39:23;;;;;;;21.08;11.70;;;;;;;11.76;93.46;101073.72;5002050;28;20057;-56
2021/10/26 08:41:54;;;;;;;19.42;12.20;;;;;;;11.83;93.17;101078.69;5022819;28;20236;-50
2021/10/26 08:44:22;;;;;;;18.73;12.25;;;;;;;11.89;93.19;101074.94;5003453;28;20048;-51
2021/10/26 08:46:49;;;;;;;21.60;12.27;;;;;;;11.92;92.87;101077.47;4995429;28;20479;-52
2021/10/26 08:49:17;;;;;;;15.18;11.48;;;;;;;11.97;92.74;101077.25;5009168;28;20491;-53
2021/10/26 08:51:46;;;;;;;16.98;11.43;;;;;;;12.03;92.37;101079.66;5004028;28;20053;-52
2021/10/26 08:54:13;;;;;;;16.17;11.63;;;;;;;12.02;92.04;101077.91;5002294;28;20045;-54
2021/10/26 08:56:40;;;;;;;16.05;11.50;;;;;;;12.13;91.86;101078.31;5006093;28;20088;-53
2021/10/26 08:59:07;;;;;;;15.40;11.13;;;;;;;12.26;90.80;101077.75;5001693;28;20049;-56
2021/10/26 09:01:52;;;;;;;15.77;10.73;;;;;;;12.43;91.30;101073.50;5006914;28;20866;-53
2021/10/26 09:04:19;;;;;;;14.10;10.57;;;;;;;12.54;89.38;101073.88;5013175;28;20528;-52
2021/10/26 09:06:55;;;;;;;18.17;11.15;;;;;;;12.58;88.50;101068.38;5004982;28;20091;-52
2021/10/26 09:09:25;;;;;;;16.52;10.88;;;;;;;12.56;88.30;101069.38;5000979;28;20049;-51
2021/10/26 09:17:49;;;;;;;14.70;10.48;;;;;;;12.27;89.75;101073.31;5000540;28;20041;-53
2021/10/26 09:20:31;;;;;;;15.38;10.10;;;;;;;12.23;89.88;101077.88;5027450;28;20147;-53
2021/10/26 09:23:00;;;;;;;15.40;10.35;;;;;;;12.17;90.53;101075.47;5022730;28;20056;-52
2021/10/26 09:25:36;;;;;;;15.32;10.00;;;;;;;12.44;90.95;101076.06;5019512;28;20052;-52
2021/10/26 09:28:11;;;;;;;18.25;10.32;;;;;;;12.67;88.56;101076.84;5019737;28;20052;-53
2021/10/26 09:30:38;;;;;;;14.32;10.27;;;;;;;12.93;86.97;101080.06;5026021;28;20041;-52
2021/10/26 09:33:08;;;;;;;16.35;10.57;;;;;;;13.17;85.61;101071.94;5025154;28;20055;-52
2021/10/26 09:35:35;;;;;;;11.73;9.30;;;;;;;13.52;83.60;101073.78;5021717;28;20060;-52
2021/10/26 09:38:03;;;;;;;12.30;9.23;;;;;;;13.73;82.14;101068.31;5027352;28;20047;-53
2021/10/26 09:40:40;;;;;;;10.32;7.70;;;;;;;13.99;80.28;101078.56;5032492;28;20051;-53
2021/10/26 09:43:07;;;;;;;12.70;8.48;;;;;;;13.89;78.92;101063.97;5014137;28;20076;-52
2021/10/26 09:45:34;;;;;;;11.10;8.30;;;;;;;14.22;79.54;101078.25;5024634;28;20047;-51
2021/10/26 09:48:12;;;;;;;12.00;8.65;;;;;;;14.57;77.45;101075.59;5026391;28;20049;-53
2021/10/26 09:50:40;;;;;;;11.88;8.50;;;;;;;14.95;75.96;101081.56;5031595;28;21548;-55
2021/10/26 09:53:11;;;;;;;12.18;7.47;;;;;;;15.04;73.74;101079.22;5024790;28;20049;-51
2021/10/26 09:55:42;;;;;;;9.90;7.50;;;;;;;15.52;73.88;101084.59;5030682;28;20530;-54
2021/10/26 09:58:13;;;;;;;12.70;7.63;;;;;;;16.34;69.72;101086.03;5030695;28;20052;-52
2021/10/26 10:00:43;;;;;;;10.02;6.80;;;;;;;16.77;66.58;101080.75;5039454;28;20053;-52
2021/10/26 10:03:17;;;;;;;6.85;5.60;;;;;;;16.95;63.99;101087.66;5023284;28;20297;-53
2021/10/26 10:05:51;;;;;;;8.52;5.40;;;;;;;17.04;63.95;101089.72;5029234;28;20399;-52
2021/10/26 10:08:28;;;;;;;8.23;5.85;;;;;;;16.54;64.92;101095.50;5036686;28;20067;-53
2021/10/26 10:11:04;;;;;;;7.63;5.30;;;;;;;16.21;65.74;101094.88;5026488;28;20103;-52
2021/10/26 10:13:31;;;;;;;8.77;5.10;;;;;;;15.83;66.37;101094.41;5029149;28;20267;-51
2021/10/26 10:16:04;;;;;;;7.70;5.40;;;;;;;15.35;69.75;101089.06;5031636;28;20048;-54
2021/10/26 10:18:30;;;;;;;7.85;4.88;;;;;;;15.41;70.44;101095.88;5033423;28;20410;-53
2021/10/26 10:20:57;;;;;;;7.97;4.97;;;;;;;15.76;68.87;101093.91;5029651;28;20493;-54
2021/10/26 10:23:25;;;;;;;9.20;5.40;;;;;;;15.96;66.98;101092.75;5028128;28;20497;-53
2021/10/26 10:25:56;;;;;;;7.80;5.15;;;;;;;15.92;67.15;101094.75;5029840;28;20068;-53
2021/10/26 10:28:29;;;;;;;6.80;5.30;;;;;;;15.76;68.01;101091.22;5034841;28;20053;-53
2021/10/26 10:30:58;;;;;;;12.15;5.53;;;;;;;15.42;68.62;101092.28;5021380;28;20052;-53
2021/10/26 10:33:25;;;;;;;10.07;6.03;;;;;;;15.05;70.58;101102.28;5019431;28;20057;-51
2021/10/26 10:35:57;;;;;;;7.75;5.40;;;;;;;14.77;72.30;101096.72;5020691;28;20157;-52
2021/10/26 10:38:29;;;;;;;9.85;6.35;;;;;;;14.58;72.89;101095.97;5027324;28;20041;-51
2021/10/26 10:41:21;;;;;;;9.82;6.15;;;;;;;14.47;74.51;101101.00;5030312;28;20470;-52
2021/10/26 10:43:48;;;;;;;10.45;6.03;;;;;;;14.33;74.41;101081.19;5024294;28;20049;-53
2021/10/26 10:46:55;;;;;;;9.45;5.65;;;;;;;14.34;74.58;101090.06;5023390;28;20045;-55
2021/10/26 10:49:36;;;;;;;7.65;5.30;;;;;;;14.59;74.52;101085.22;5025684;28;20061;-52
2021/10/26 10:52:13;;;;;;;8.38;5.22;;;;;;;14.92;73.36;101084.38;5027280;28;20048;-52
2021/10/26 10:57:19;;;;;;;7.90;5.07;;;;;;;15.56;70.76;101073.69;5025569;28;20064;-55
2021/10/26 10:59:50;;;;;;;8.05;4.95;;;;;;;15.72;70.38;101071.88;5029251;28;20052;-51
2021/10/26 11:02:26;;;;;;;5.97;5.35;;;;;;;15.89;69.06;101078.91;5028496;28;21001;-52
2021/10/26 11:04:56;;;;;;;7.18;4.85;;;;;;;15.99;68.51;101068.53;5031501;28;20486;-54
2021/10/26 11:07:45;;;;;;;6.10;4.40;;;;;;;15.73;68.96;101070.06;5019928;28;20425;-53
2021/10/26 11:10:14;;;;;;;8.57;4.97;;;;;;;15.41;69.82;101069.19;5031994;28;20049;-53
2021/10/26 11:12:42;;;;;;;6.85;4.65;;;;;;;15.21;71.23;101069.44;5028191;28;20471;-55
2021/10/26 11:15:11;;;;;;;9.90;4.95;;;;;;;15.18;71.64;101066.94;5028380;28;20049;-51
2021/10/26 11:17:40;;;;;;;7.30;4.63;;;;;;;15.21;72.00;101066.78;5024208;28;20041;-51
2021/10/26 11:20:25;;;;;;;6.95;4.50;;;;;;;15.21;71.91;101064.97;5028621;28;20049;-51
2021/10/26 11:22:58;;;;;;;6.82;4.82;;;;;;;15.16;72.54;101063.50;5026563;28;20049;-53
2021/10/26 11:25:27;;;;;;;10.95;5.55;;;;;;;15.05;73.34;101062.28;5026002;28;20044;-54
2021/10/26 11:28:10;;;;;;;7.55;5.25;;;;;;;15.02;73.96;101062.44;5030254;28;20072;-53
2021/10/26 11:30:36;;;;;;;8.27;5.47;;;;;;;15.00;73.65;101064.34;5028767;28;20045;-51
2021/10/26 11:33:09;;;;;;;6.85;5.13;;;;;;;15.06;74.05;101063.16;5026397;28;20052;-52